K9SCH Weather Reports


Display with metric or nautical units.
time (UTC)temp
F
wind
direction
speed
MPH
gust
MPH
rain 1hr
in
rain 24hr
in
rain mn
in
humidity
%
barometer
mb
20210805075518 85 0.0 4.0 0.00 0.00 0.00 34 1010.3
20210805074518 86 203 1.0 3.0 0.00 0.00 0.00 32 1010.2
20210805073516 86 0.0 1.0 0.00 0.00 0.00 31 1010.2
20210805072517 87 0.0 2.0 0.00 0.00 0.00 31 1010.2
20210805071516 87 0.0 2.0 0.00 0.00 0.00 30 1010.2
20210805070517 88 0.0 3.0 0.00 0.00 0.00 29 1010.4
20210805065517 88 90 1.0 4.0 0.00 0.00 0.00 30 1010.4
20210805064521 88 90 1.0 3.0 0.00 0.00 0.00 30 1010.3
20210805063517 88 113 1.0 3.0 0.00 0.00 0.00 30 1010.4
20210805062516 89 0.0 3.0 0.00 0.00 0.00 30 1010.4
20210805061516 89 113 1.0 4.0 0.00 0.00 0.00 29 1010.3
20210805060516 89 113 1.0 3.0 0.00 0.00 0.00 30 1010.2
20210805055517 89 113 1.0 3.0 0.00 0.00 0.00 30 1010.0
20210805054516 89 113 1.0 3.0 0.00 0.00 0.00 30 1009.9
20210805053516 89 113 1.0 3.0 0.00 0.00 0.00 31 1010.1
20210805052517 89 0.0 3.0 0.00 0.00 0.00 31 1010.0
20210805051518 90 0.0 1.0 0.00 0.00 0.00 31 1009.9
20210805050517 91 113 1.0 5.0 0.00 0.00 0.00 29 1009.8
20210805045519 91 113 1.0 3.0 0.00 0.00 0.00 29 1009.8
20210805044517 90 0.0 1.0 0.00 0.00 0.00 30 1009.8
20210805043516 90 0.0 1.0 0.00 0.00 0.00 31 1009.7
20210805042518 91 0.0 1.0 0.00 0.00 0.00 31 1009.6
20210805041518 91 0.0 1.0 0.00 0.00 0.00 30 1009.3
20210805040517 92 0.0 1.0 0.00 0.00 0.00 30 1009.2
20210805035518 92 0.0 3.0 0.00 0.00 0.00 29 1009.1
20210805034516 93 0.0 1.0 0.00 0.00 0.00 27 1008.9
20210805033516 94 0.0 1.0 0.00 0.00 0.00 27 1008.9
20210805032516 95 0.0 1.0 0.00 0.00 0.00 26 1008.7
20210805031516 95 0.0 0.0 0.00 0.00 0.00 25 1008.6
20210805030518 96 0.0 0.0 0.00 0.00 0.00 24 1008.5
20210805025517 96 0.0 1.0 0.00 0.00 0.00 23 1008.4
20210805024520 98 0.0 0.0 0.00 0.00 0.00 22 1008.3
20210805023517 98 0.0 0.0 0.00 0.00 0.00 21 1008.2
20210805022516 100 0.0 0.0 0.00 0.00 0.00 20 1008.3
20210805021516 102 0.0 1.0 0.00 0.00 0.00 18 1008.1
20210805020518 103 0.0 2.0 0.00 0.00 0.00 16 1008.1
20210805015516 104 270 2.0 5.0 0.00 0.00 0.00 15 1008.0
20210805014518 105 270 1.0 5.0 0.00 0.00 0.00 15 1008.0
20210805013516 106 270 4.0 7.0 0.00 0.00 0.00 15 1007.8
20210805012516 106 270 4.0 8.0 0.00 0.00 0.00 15 1007.8
20210805011515 106 270 5.0 11.0 0.00 0.00 0.00 15 1007.8
20210805010516 107 270 3.0 8.0 0.00 0.00 0.00 15 1007.8
20210805005516 107 270 4.0 13.0 0.00 0.00 0.00 16 1007.7
20210805004516 107 270 6.0 10.0 0.00 0.00 0.00 15 1007.7
20210805003518 108 270 4.0 8.0 0.00 0.00 0.00 15 1007.9
20210805002516 108 270 4.0 8.0 0.00 0.00 0.00 15 1008.0
20210805001516 108 293 2.0 7.0 0.00 0.00 0.00 14 1008.0
20210805000516 108 270 4.0 9.0 0.00 0.00 0.00 14 1008.0
20210804235515 108 270 4.0 11.0 0.00 0.00 0.00 14 1008.2
20210804234517 108 270 5.0 10.0 0.00 0.00 0.00 14 1008.2
20210804233516 108 270 4.0 8.0 0.00 0.00 0.00 14 1008.3
20210804232518 109 293 2.0 7.0 0.00 0.00 0.00 14 1008.3
20210804231515 108 270 4.0 10.0 0.00 0.00 0.00 15 1008.4
20210804230517 107 270 4.0 14.0 0.00 0.00 0.00 16 1008.5
20210804225517 108 293 2.0 7.0 0.00 0.00 0.00 15 1008.6
20210804224519 108 270 3.0 6.0 0.00 0.00 0.00 15 1008.8
20210804223516 108 338 1.0 7.0 0.00 0.00 0.00 16 1008.9
20210804222515 108 270 1.0 4.0 0.00 0.00 0.00 17 1009.0
20210804221516 107 270 3.0 9.0 0.00 0.00 0.00 15 1009.1
20210804220515 107 270 3.0 11.0 0.00 0.00 0.00 17 1009.3
20210804215516 107 293 2.0 10.0 0.00 0.00 0.00 17 1009.5
20210804214516 107 270 5.0 11.0 0.00 0.00 0.00 18 1009.5
20210804213516 107 293 4.0 10.0 0.00 0.00 0.00 18 1009.8
20210804212517 107 248 4.0 12.0 0.00 0.00 0.00 20 1010.0
20210804211515 107 293 2.0 7.0 0.00 0.00 0.00 20 1010.2
20210804210517 106 0.0 4.0 0.00 0.00 0.00 20 1010.3
20210804205515 106 248 2.0 8.0 0.00 0.00 0.00 20 1010.4
20210804204516 106 270 4.0 9.0 0.00 0.00 0.00 20 1010.6
20210804203517 106 270 2.0 11.0 0.00 0.00 0.00 21 1010.7
20210804202515 105 248 2.0 10.0 0.00 0.00 0.00 21 1010.7
20210804201516 105 248 4.0 11.0 0.00 0.00 0.00 22 1010.8
20210804200517 106 270 1.0 8.0 0.00 0.00 0.00 22 1011.0
20210804195515 105 203 4.0 10.0 0.00 0.00 0.00 22 1011.1
20210804194518 104 248 4.0 10.0 0.00 0.00 0.00 22 1011.2
20210804193516 105 270 4.0 12.0 0.00 0.00 0.00 23 1011.4
20210804192516 104 248 4.0 10.0 0.00 0.00 0.00 22 1011.5
20210804191515 104 270 3.0 6.0 0.00 0.00 0.00 23 1011.6
20210804190515 105 248 2.0 5.0 0.00 0.00 0.00 22 1011.8
20210804185515 104 135 2.0 7.0 0.00 0.00 0.00 23 1011.8
20210804184515 103 293 2.0 5.0 0.00 0.00 0.00 23 1011.8
20210804183516 103 225 3.0 7.0 0.00 0.00 0.00 23 1011.8
20210804182515 103 270 2.0 5.0 0.00 0.00 0.00 24 1012.1
20210804181516 102 68 1.0 4.0 0.00 0.00 0.00 25 1012.1
20210804180515 102 113 1.0 4.0 0.00 0.00 0.00 24 1012.2
20210804175517 101 135 2.0 6.0 0.00 0.00 0.00 25 1012.3
20210804174516 100 68 1.0 3.0 0.00 0.00 0.00 25 1012.2
20210804173515 101 135 2.0 5.0 0.00 0.00 0.00 26 1012.5
20210804172515 101 158 1.0 5.0 0.00 0.00 0.00 25 1012.5
20210804171515 99 225 2.0 5.0 0.00 0.00 0.00 28 1012.4
20210804170515 98 158 1.0 5.0 0.00 0.00 0.00 29 1012.4
20210804165516 98 135 2.0 6.0 0.00 0.00 0.00 27 1012.3
20210804164517 99 225 1.0 5.0 0.00 0.00 0.00 29 1012.4
20210804163516 99 180 1.0 4.0 0.00 0.00 0.00 29 1012.4
20210804162515 97 158 1.0 6.0 0.00 0.00 0.00 30 1012.4
20210804161516 97 203 3.0 8.0 0.00 0.00 0.00 30 1012.5
20210804160515 95 135 2.0 6.0 0.00 0.00 0.00 33 1012.5
20210804155516 94 135 2.0 5.0 0.00 0.00 0.00 33 1012.5
20210804154516 94 135 3.0 7.0 0.00 0.00 0.00 34 1012.5
20210804153517 93 158 2.0 6.0 0.00 0.00 0.00 35 1012.4
20210804152515 92 135 3.0 6.0 0.00 0.00 0.00 36 1012.4
20210804151515 92 135 3.0 6.0 0.00 0.00 0.00 37 1012.4
20210804150515 91 135 2.0 7.0 0.00 0.00 0.00 37 1012.4
20210804145515 90 135 2.0 6.0 0.00 0.00 0.00 37 1012.4
20210804144515 90 135 2.0 7.0 0.00 0.00 0.00 38 1012.5
20210804143515 89 135 3.0 8.0 0.00 0.00 0.00 38 1012.4
20210804142518 88 135 3.0 9.0 0.00 0.00 0.00 39 1012.2
20210804141517 88 135 3.0 6.0 0.00 0.00 0.00 39 1012.3
20210804140517 87 135 2.0 6.0 0.00 0.00 0.00 41 1012.1
20210804135517 86 135 2.0 5.0 0.00 0.00 0.00 41 1012.0
20210804134517 85 135 2.0 5.0 0.00 0.00 0.00 41 1011.8
20210804133518 84 135 2.0 5.0 0.00 0.00 0.00 42 1011.8
20210804132517 83 135 1.0 4.0 0.00 0.00 0.00 42 1011.7
20210804131517 83 113 1.0 3.0 0.00 0.00 0.00 44 1011.7
20210804130517 82 135 1.0 5.0 0.00 0.00 0.00 45 1011.7
20210804125518 80 135 2.0 5.0 0.00 0.00 0.00 47 1011.4
20210804124518 79 113 2.0 3.0 0.00 0.00 0.00 50 1011.2
20210804123517 80 0.0 2.0 0.00 0.00 0.00 50 1011.0
20210804122517 80 135 1.0 4.0 0.00 0.00 0.00 50 1011.0
20210804121517 81 135 2.0 4.0 0.00 0.00 0.00 49 1011.0
20210804120517 81 135 2.0 4.0 0.00 0.00 0.00 47 1011.0
20210804115517 82 135 2.0 5.0 0.00 0.00 0.00 46 1010.9
20210804114517 83 135 3.0 7.0 0.00 0.00 0.00 42 1010.9
20210804113517 84 135 3.0 7.0 0.00 0.00 0.00 40 1010.8
20210804112518 84 135 1.0 5.0 0.00 0.00 0.00 40 1010.7
20210804111518 83 135 1.0 5.0 0.00 0.00 0.00 41 1010.6
20210804110517 83 113 1.0 3.0 0.00 0.00 0.00 41 1010.6
20210804105517 84 135 1.0 4.0 0.00 0.00 0.00 39 1010.5
20210804104518 85 135 1.0 2.0 0.00 0.00 0.00 39 1010.5
20210804103518 85 0.0 2.0 0.00 0.00 0.00 39 1010.6
20210804102517 85 135 2.0 5.0 0.00 0.00 0.00 39 1010.5
20210804101517 85 113 2.0 4.0 0.00 0.00 0.00 38 1010.6
20210804100517 86 113 2.0 5.0 0.00 0.00 0.00 37 1010.6
20210804095517 86 135 2.0 8.0 0.00 0.00 0.00 37 1010.6
20210804094516 85 113 2.0 6.0 0.00 0.00 0.00 38 1010.6
20210804093519 85 113 2.0 5.0 0.00 0.00 0.00 40 1010.6
20210804092517 85 113 2.0 4.0 0.00 0.00 0.00 40 1010.5
20210804091518 86 135 1.0 3.0 0.00 0.00 0.00 39 1010.5
20210804090518 86 135 1.0 3.0 0.00 0.00 0.00 38 1010.4
20210804085517 87 135 1.0 3.0 0.00 0.00 0.00 37 1010.6
20210804084517 87 113 1.0 4.0 0.00 0.00 0.00 36 1010.6
20210804083518 87 113 2.0 5.0 0.00 0.00 0.00 37 1010.6
20210804082517 87 113 2.0 4.0 0.00 0.00 0.00 36 1010.6
20210804081517 87 113 2.0 4.0 0.00 0.00 0.00 36 1010.6
20210804080517 88 113 3.0 5.0 0.00 0.00 0.00 36 1010.7